Nashua, NH (03062)

2:35 AM EST on January 21, 2017 (GMT -0500)
Macdonald Drive | | Change Station
Active Advisory: Gale Watch

Elev 260 ft 42.72 °N, 71.50 °W | Updated 75 days ago

Overcast
Overcast
43.0 °F
Feels Like 43 °F
N
3.0
Wind Variable Wind from NW

Today
High -- | Low -- °F
--% Chance of Precip.
Yesterday
High -- | Low -- °F
Precip. -- in
Pressure 29.93 in
Visibility 10.0 miles
Clouds Mostly Cloudy 2600 ft
Overcast 3400 ft
Windchill 43 °F
Dew Point 41 °F
Humidity 96%
Rainfall 0.00 in
Snow Depth Not available.
7:09 AM 4:45 PM
Last Quarter, 37% visible
METAR KASH 210656Z AUTO 00000KT 10SM BKN026 OVC034 02/00 A2990 RMK AO2 SLP135 T00170000
Pressure 29.93 in
Visibility 10.0 miles
Clouds Mostly Cloudy 2600 ft
Overcast 3400 ft
Windchill 43 °F
Dew Point 41 °F
Humidity 96%
Rainfall 0.00 in
Snow Depth Not available.
7:09 AM 4:45 PM
Last Quarter, 37% visible
METAR KASH 210656Z AUTO 00000KT 10SM BKN026 OVC034 02/00 A2990 RMK AO2 SLP135 T00170000

Get Your Daily Forecast Email!

Thanks for signing up!

Be on the lookout for a verification email in your inbox.

You'll start receiving the daily forecast at 8 AM.

×

10-Day Weather Forecast

Almanac

Astronomy

Jan. 21, 2017 Rise Set
Actual Time
Civil Twilight
Nautical Twilight
Astronomical Twilight
Moon
Length of Visible Light
Length of Day
Tomorrow will be .
, % of the Moon is Illuminated

Today's Extremes

State Highs State Lows

Community

WunderPhotos

Upload Photos

1,962,540 photos uploaded!

WunderBlog® & News

Nearby

Air Quality

  Air Quality AQ Index Pollutant
Not available.

Snow Depth

Station Depth Elevation

Earthquake Activity

City Distance Mag. Time & Date
Minimum magnitude displayed is 2.5.

Coastal Water Temperatures

Place Temperature

Stations

Nearby Weather Stations

Station Location Temp. Windchill Dew Point Humidity Wind Precip. Elev Updated Type
                   

Watches & Warnings

Gale Watch
Issued: 9:55 PM EST Jan. 20, 2017 – National Weather Service

... Gale watch remains in effect from Monday morning through late
Monday night...

* winds and seas... east winds 20 to 25 kt with gusts up to 35
kt. Seas 4 to 7 feet.

Precautionary/preparedness actions...

A gale watch is issued when the risk of gale force winds of 34 to
47 knots has significantly increased... but the specific timing
and/or location is still uncertain. It is intended to provide
additional lead time for mariners who may wish to consider
altering their plans.